sensor_id;sensor_type;location;lat;lon;timestamp;P1;durP1;ratioP1;P2;durP2;ratioP2
16193;SDS011;8204;53.582;10.080;2022-11-15T00:01:31;36.60;;;30.43;;
16193;SDS011;8204;53.582;10.080;2022-11-15T00:04:01;34.77;;;31.00;;
16193;SDS011;8204;53.582;10.080;2022-11-15T00:06:29;34.80;;;31.00;;
16193;SDS011;8204;53.582;10.080;2022-11-15T00:08:58;33.57;;;30.00;;
16193;SDS011;8204;53.582;10.080;2022-11-15T00:11:30;33.80;;;29.23;;
16193;SDS011;8204;53.582;10.080;2022-11-15T00:13:59;36.83;;;29.57;;
16193;SDS011;8204;53.582;10.080;2022-11-15T00:16:29;36.13;;;29.90;;
16193;SDS011;8204;53.582;10.080;2022-11-15T00:18:57;40.50;;;35.73;;
16193;SDS011;8204;53.582;10.080;2022-11-15T00:21:27;34.50;;;29.47;;
16193;SDS011;8204;53.582;10.080;2022-11-15T00:23:55;35.43;;;30.57;;
16193;SDS011;8204;53.582;10.080;2022-11-15T00:26:24;33.73;;;30.07;;
16193;SDS011;8204;53.582;10.080;2022-11-15T00:28:55;36.00;;;30.53;;
16193;SDS011;8204;53.582;10.080;2022-11-15T00:31:24;33.87;;;30.27;;
16193;SDS011;8204;53.582;10.080;2022-11-15T00:33:53;35.43;;;31.77;;
16193;SDS011;8204;53.582;10.080;2022-11-15T00:36:21;37.83;;;32.17;;
16193;SDS011;8204;53.582;10.080;2022-11-15T00:38:51;33.87;;;30.30;;
16193;SDS011;8204;53.582;10.080;2022-11-15T00:41:20;35.03;;;29.50;;
16193;SDS011;8204;53.582;10.080;2022-11-15T00:43:48;34.37;;;30.70;;
16193;SDS011;8204;53.582;10.080;2022-11-15T00:46:20;32.13;;;28.97;;
16193;SDS011;8204;53.582;10.080;2022-11-15T00:48:48;31.13;;;27.90;;
16193;SDS011;8204;53.582;10.080;2022-11-15T00:51:17;31.40;;;27.87;;
16193;SDS011;8204;53.582;10.080;2022-11-15T00:53:46;31.30;;;28.17;;
16193;SDS011;8204;53.582;10.080;2022-11-15T00:56:15;32.80;;;29.50;;
16193;SDS011;8204;53.582;10.080;2022-11-15T00:58:44;33.90;;;30.23;;
16193;SDS011;8204;53.582;10.080;2022-11-15T01:01:13;33.23;;;28.23;;
16193;SDS011;8204;53.582;10.080;2022-11-15T01:03:45;32.07;;;28.90;;
16193;SDS011;8204;53.582;10.080;2022-11-15T01:06:14;32.40;;;28.90;;
16193;SDS011;8204;53.582;10.080;2022-11-15T01:08:43;32.83;;;29.43;;
16193;SDS011;8204;53.582;10.080;2022-11-15T01:11:12;31.73;;;28.43;;
16193;SDS011;8204;53.582;10.080;2022-11-15T01:13:40;33.83;;;28.93;;
16193;SDS011;8204;53.582;10.080;2022-11-15T01:16:10;33.50;;;28.53;;
16193;SDS011;8204;53.582;10.080;2022-11-15T01:18:44;33.77;;;28.80;;
16193;SDS011;8204;53.582;10.080;2022-11-15T01:21:15;31.03;;;27.93;;
16193;SDS011;8204;53.582;10.080;2022-11-15T01:23:46;34.13;;;29.10;;
16193;SDS011;8204;53.582;10.080;2022-11-15T01:26:15;34.60;;;28.63;;
16193;SDS011;8204;53.582;10.080;2022-11-15T01:28:44;32.90;;;29.40;;
16193;SDS011;8204;53.582;10.080;2022-11-15T01:31:13;31.10;;;27.77;;
16193;SDS011;8204;53.582;10.080;2022-11-15T01:33:46;32.33;;;27.50;;
16193;SDS011;8204;53.582;10.080;2022-11-15T01:36:17;34.23;;;30.60;;
16193;SDS011;8204;53.582;10.080;2022-11-15T01:38:47;32.93;;;29.37;;
16193;SDS011;8204;53.582;10.080;2022-11-15T01:41:22;30.27;;;27.27;;
16193;SDS011;8204;53.582;10.080;2022-11-15T01:43:53;31.33;;;28.00;;
16193;SDS011;8204;53.582;10.080;2022-11-15T01:46:24;30.97;;;27.63;;
16193;SDS011;8204;53.582;10.080;2022-11-15T01:49:00;28.43;;;25.43;;
16193;SDS011;8204;53.582;10.080;2022-11-15T01:51:32;30.63;;;27.37;;
16193;SDS011;8204;53.582;10.080;2022-11-15T01:54:02;30.23;;;27.03;;
16193;SDS011;8204;53.582;10.080;2022-11-15T01:56:36;30.80;;;27.53;;
16193;SDS011;8204;53.582;10.080;2022-11-15T01:59:09;30.90;;;27.37;;
16193;SDS011;8204;53.582;10.080;2022-11-15T02:01:39;29.27;;;26.20;;
16193;SDS011;8204;53.582;10.080;2022-11-15T02:04:12;30.07;;;26.83;;
16193;SDS011;8204;53.582;10.080;2022-11-15T02:06:44;29.30;;;26.20;;
16193;SDS011;8204;53.582;10.080;2022-11-15T02:09:15;28.40;;;25.40;;
16193;SDS011;8204;53.582;10.080;2022-11-15T02:11:44;29.97;;;26.90;;
16193;SDS011;8204;53.582;10.080;2022-11-15T02:14:16;31.27;;;26.90;;
16193;SDS011;8204;53.582;10.080;2022-11-15T02:16:48;27.83;;;24.87;;
16193;SDS011;8204;53.582;10.080;2022-11-15T02:19:37;29.17;;;26.00;;
16193;SDS011;8204;53.582;10.080;2022-11-15T02:22:21;27.07;;;24.17;;
16193;SDS011;8204;53.582;10.080;2022-11-15T02:25:07;28.33;;;25.23;;
16193;SDS011;8204;53.582;10.080;2022-11-15T02:28:06;27.03;;;23.90;;
16193;SDS011;8204;53.582;10.080;2022-11-15T02:30:47;26.47;;;23.63;;
16193;SDS011;8204;53.582;10.080;2022-11-15T02:33:25;28.17;;;25.23;;
16193;SDS011;8204;53.582;10.080;2022-11-15T02:36:00;30.07;;;26.90;;
16193;SDS011;8204;53.582;10.080;2022-11-15T02:38:31;28.77;;;25.80;;
16193;SDS011;8204;53.582;10.080;2022-11-15T02:41:09;29.93;;;26.93;;
16193;SDS011;8204;53.582;10.080;2022-11-15T02:43:43;30.27;;;24.80;;
16193;SDS011;8204;53.582;10.080;2022-11-15T02:46:27;29.53;;;23.27;;
16193;SDS011;8204;53.582;10.080;2022-11-15T02:49:14;27.07;;;24.30;;
16193;SDS011;8204;53.582;10.080;2022-11-15T02:51:44;26.33;;;23.57;;
16193;SDS011;8204;53.582;10.080;2022-11-15T02:54:17;25.83;;;23.13;;
16193;SDS011;8204;53.582;10.080;2022-11-15T02:56:49;26.30;;;23.50;;
16193;SDS011;8204;53.582;10.080;2022-11-15T02:59:29;27.43;;;24.67;;
16193;SDS011;8204;53.582;10.080;2022-11-15T03:02:23;27.80;;;24.80;;
16193;SDS011;8204;53.582;10.080;2022-11-15T03:05:13;25.77;;;23.07;;
16193;SDS011;8204;53.582;10.080;2022-11-15T03:07:50;25.60;;;22.83;;
16193;SDS011;8204;53.582;10.080;2022-11-15T03:10:26;23.63;;;21.43;;
16193;SDS011;8204;53.582;10.080;2022-11-15T03:13:03;24.60;;;21.83;;
16193;SDS011;8204;53.582;10.080;2022-11-15T03:15:41;23.93;;;21.43;;
16193;SDS011;8204;53.582;10.080;2022-11-15T03:18:22;25.63;;;23.10;;
16193;SDS011;8204;53.582;10.080;2022-11-15T03:20:58;24.40;;;21.83;;
16193;SDS011;8204;53.582;10.080;2022-11-15T03:23:31;26.10;;;22.53;;
16193;SDS011;8204;53.582;10.080;2022-11-15T03:26:01;25.30;;;22.33;;
16193;SDS011;8204;53.582;10.080;2022-11-15T03:28:34;26.63;;;23.83;;
16193;SDS011;8204;53.582;10.080;2022-11-15T03:31:06;26.23;;;22.77;;
16193;SDS011;8204;53.582;10.080;2022-11-15T03:33:52;22.93;;;20.63;;
16193;SDS011;8204;53.582;10.080;2022-11-15T03:36:24;27.40;;;24.47;;
16193;SDS011;8204;53.582;10.080;2022-11-15T03:38:55;22.80;;;20.60;;
16193;SDS011;8204;53.582;10.080;2022-11-15T03:41:30;24.73;;;22.23;;
16193;SDS011;8204;53.582;10.080;2022-11-15T03:44:11;25.57;;;22.70;;
16193;SDS011;8204;53.582;10.080;2022-11-15T03:46:46;24.47;;;22.07;;
16193;SDS011;8204;53.582;10.080;2022-11-15T03:49:25;24.73;;;22.13;;
16193;SDS011;8204;53.582;10.080;2022-11-15T03:51:58;26.20;;;23.57;;
16193;SDS011;8204;53.582;10.080;2022-11-15T03:54:27;26.23;;;21.87;;
16193;SDS011;8204;53.582;10.080;2022-11-15T03:56:56;23.23;;;20.73;;
16193;SDS011;8204;53.582;10.080;2022-11-15T03:59:25;27.43;;;21.60;;
16193;SDS011;8204;53.582;10.080;2022-11-15T04:01:54;23.40;;;21.07;;
16193;SDS011;8204;53.582;10.080;2022-11-15T04:04:25;24.93;;;22.33;;
16193;SDS011;8204;53.582;10.080;2022-11-15T04:06:54;25.13;;;21.27;;
16193;SDS011;8204;53.582;10.080;2022-11-15T04:09:23;26.17;;;23.57;;
16193;SDS011;8204;53.582;10.080;2022-11-15T04:11:52;25.17;;;22.57;;
16193;SDS011;8204;53.582;10.080;2022-11-15T04:14:20;24.93;;;22.37;;
16193;SDS011;8204;53.582;10.080;2022-11-15T04:16:49;23.97;;;21.43;;
16193;SDS011;8204;53.582;10.080;2022-11-15T04:19:18;25.20;;;22.80;;
16193;SDS011;8204;53.582;10.080;2022-11-15T04:22:02;25.67;;;22.27;;
16193;SDS011;8204;53.582;10.080;2022-11-15T04:24:43;24.67;;;22.00;;
16193;SDS011;8204;53.582;10.080;2022-11-15T04:27:12;24.07;;;21.63;;
16193;SDS011;8204;53.582;10.080;2022-11-15T04:29:41;24.87;;;21.23;;
16193;SDS011;8204;53.582;10.080;2022-11-15T04:32:10;23.60;;;20.97;;
16193;SDS011;8204;53.582;10.080;2022-11-15T04:34:38;27.10;;;23.17;;
16193;SDS011;8204;53.582;10.080;2022-11-15T04:37:10;24.87;;;21.90;;
16193;SDS011;8204;53.582;10.080;2022-11-15T04:39:42;23.50;;;21.13;;
16193;SDS011;8204;53.582;10.080;2022-11-15T04:42:11;22.93;;;20.53;;
16193;SDS011;8204;53.582;10.080;2022-11-15T04:44:40;24.73;;;20.60;;
16193;SDS011;8204;53.582;10.080;2022-11-15T04:47:09;22.60;;;20.30;;
16193;SDS011;8204;53.582;10.080;2022-11-15T04:49:38;23.43;;;20.73;;
16193;SDS011;8204;53.582;10.080;2022-11-15T04:52:06;23.90;;;21.33;;
16193;SDS011;8204;53.582;10.080;2022-11-15T04:54:38;23.87;;;21.50;;
16193;SDS011;8204;53.582;10.080;2022-11-15T04:57:07;24.77;;;22.23;;
16193;SDS011;8204;53.582;10.080;2022-11-15T04:59:36;25.63;;;23.03;;
16193;SDS011;8204;53.582;10.080;2022-11-15T05:02:05;24.10;;;21.70;;
16193;SDS011;8204;53.582;10.080;2022-11-15T05:04:34;24.73;;;22.33;;
16193;SDS011;8204;53.582;10.080;2022-11-15T05:07:00;24.87;;;22.27;;
16193;SDS011;8204;53.582;10.080;2022-11-15T05:09:28;24.37;;;21.77;;
16193;SDS011;8204;53.582;10.080;2022-11-15T05:12:00;24.27;;;20.80;;
16193;SDS011;8204;53.582;10.080;2022-11-15T05:14:29;24.23;;;21.70;;
16193;SDS011;8204;53.582;10.080;2022-11-15T05:16:58;24.37;;;21.97;;
16193;SDS011;8204;53.582;10.080;2022-11-15T05:19:27;24.83;;;22.30;;
16193;SDS011;8204;53.582;10.080;2022-11-15T05:21:56;25.13;;;22.73;;
16193;SDS011;8204;53.582;10.080;2022-11-15T05:24:24;23.73;;;21.33;;
16193;SDS011;8204;53.582;10.080;2022-11-15T05:26:53;23.47;;;20.83;;
16193;SDS011;8204;53.582;10.080;2022-11-15T05:29:24;26.67;;;23.40;;
16193;SDS011;8204;53.582;10.080;2022-11-15T05:31:53;23.17;;;20.87;;
16193;SDS011;8204;53.582;10.080;2022-11-15T05:34:22;27.43;;;23.50;;
16193;SDS011;8204;53.582;10.080;2022-11-15T05:36:52;24.63;;;22.10;;
16193;SDS011;8204;53.582;10.080;2022-11-15T05:39:21;23.93;;;21.43;;
16193;SDS011;8204;53.582;10.080;2022-11-15T05:41:52;25.53;;;23.00;;
16193;SDS011;8204;53.582;10.080;2022-11-15T05:44:28;23.37;;;21.00;;
16193;SDS011;8204;53.582;10.080;2022-11-15T05:46:57;24.67;;;22.10;;
16193;SDS011;8204;53.582;10.080;2022-11-15T05:49:27;23.83;;;21.57;;
16193;SDS011;8204;53.582;10.080;2022-11-15T05:52:00;23.97;;;21.40;;
16193;SDS011;8204;53.582;10.080;2022-11-15T05:54:31;23.57;;;21.20;;
16193;SDS011;8204;53.582;10.080;2022-11-15T05:57:00;23.17;;;20.77;;
16193;SDS011;8204;53.582;10.080;2022-11-15T05:59:32;23.50;;;20.97;;
16193;SDS011;8204;53.582;10.080;2022-11-15T06:02:01;24.37;;;21.77;;
16193;SDS011;8204;53.582;10.080;2022-11-15T06:04:30;25.30;;;22.80;;
16193;SDS011;8204;53.582;10.080;2022-11-15T06:06:59;23.83;;;21.47;;
16193;SDS011;8204;53.582;10.080;2022-11-15T06:09:28;24.13;;;21.70;;
16193;SDS011;8204;53.582;10.080;2022-11-15T06:11:57;24.60;;;21.03;;
16193;SDS011;8204;53.582;10.080;2022-11-15T06:14:25;26.17;;;23.30;;
16193;SDS011;8204;53.582;10.080;2022-11-15T06:16:57;22.60;;;20.27;;
16193;SDS011;8204;53.582;10.080;2022-11-15T06:19:27;26.47;;;23.70;;
16193;SDS011;8204;53.582;10.080;2022-11-15T06:21:58;23.67;;;21.27;;
16193;SDS011;8204;53.582;10.080;2022-11-15T06:24:27;22.43;;;20.17;;
16193;SDS011;8204;53.582;10.080;2022-11-15T06:26:56;25.03;;;21.93;;
16193;SDS011;8204;53.582;10.080;2022-11-15T06:29:26;24.73;;;21.93;;
16193;SDS011;8204;53.582;10.080;2022-11-15T06:31:54;21.97;;;19.77;;
16193;SDS011;8204;53.582;10.080;2022-11-15T06:34:26;25.30;;;22.23;;
16193;SDS011;8204;53.582;10.080;2022-11-15T06:36:54;25.43;;;22.70;;
16193;SDS011;8204;53.582;10.080;2022-11-15T06:39:23;22.67;;;20.33;;
16193;SDS011;8204;53.582;10.080;2022-11-15T06:41:52;22.60;;;20.37;;
16193;SDS011;8204;53.582;10.080;2022-11-15T06:44:21;25.47;;;23.10;;
16193;SDS011;8204;53.582;10.080;2022-11-15T06:46:50;24.13;;;21.53;;
16193;SDS011;8204;53.582;10.080;2022-11-15T06:49:21;27.53;;;24.87;;
16193;SDS011;8204;53.582;10.080;2022-11-15T06:51:50;27.70;;;24.80;;
16193;SDS011;8204;53.582;10.080;2022-11-15T06:54:18;25.80;;;23.07;;
16193;SDS011;8204;53.582;10.080;2022-11-15T06:56:47;25.87;;;23.07;;
16193;SDS011;8204;53.582;10.080;2022-11-15T06:59:16;24.87;;;22.20;;
16193;SDS011;8204;53.582;10.080;2022-11-15T07:01:45;25.37;;;21.63;;
16193;SDS011;8204;53.582;10.080;2022-11-15T07:04:14;23.07;;;20.70;;
16193;SDS011;8204;53.582;10.080;2022-11-15T07:06:45;23.47;;;21.20;;
16193;SDS011;8204;53.582;10.080;2022-11-15T07:09:14;26.80;;;24.00;;
16193;SDS011;8204;53.582;10.080;2022-11-15T07:11:43;26.03;;;23.37;;
16193;SDS011;8204;53.582;10.080;2022-11-15T07:14:12;26.07;;;22.43;;
16193;SDS011;8204;53.582;10.080;2022-11-15T07:16:41;25.77;;;23.23;;
16193;SDS011;8204;53.582;10.080;2022-11-15T07:19:10;25.23;;;22.67;;
16193;SDS011;8204;53.582;10.080;2022-11-15T07:21:39;26.13;;;23.37;;
16193;SDS011;8204;53.582;10.080;2022-11-15T07:24:10;23.97;;;21.50;;
16193;SDS011;8204;53.582;10.080;2022-11-15T07:26:39;25.07;;;22.47;;
16193;SDS011;8204;53.582;10.080;2022-11-15T07:29:08;28.47;;;25.47;;
16193;SDS011;8204;53.582;10.080;2022-11-15T07:31:36;25.17;;;22.67;;
16193;SDS011;8204;53.582;10.080;2022-11-15T07:34:05;25.70;;;22.67;;
16193;SDS011;8204;53.582;10.080;2022-11-15T07:36:35;26.33;;;23.63;;
16193;SDS011;8204;53.582;10.080;2022-11-15T07:39:04;28.70;;;24.40;;
16193;SDS011;8204;53.582;10.080;2022-11-15T07:41:35;25.23;;;22.53;;
16193;SDS011;8204;53.582;10.080;2022-11-15T07:44:04;23.60;;;21.30;;
16193;SDS011;8204;53.582;10.080;2022-11-15T07:46:33;27.20;;;24.30;;
16193;SDS011;8204;53.582;10.080;2022-11-15T07:49:02;28.37;;;25.60;;
16193;SDS011;8204;53.582;10.080;2022-11-15T07:51:30;28.03;;;25.13;;
16193;SDS011;8204;53.582;10.080;2022-11-15T07:54:02;27.87;;;23.73;;
16193;SDS011;8204;53.582;10.080;2022-11-15T07:56:31;25.37;;;22.93;;
16193;SDS011;8204;53.582;10.080;2022-11-15T07:59:02;25.43;;;22.83;;
16193;SDS011;8204;53.582;10.080;2022-11-15T08:01:31;27.07;;;24.00;;
16193;SDS011;8204;53.582;10.080;2022-11-15T08:03:59;25.87;;;23.13;;
16193;SDS011;8204;53.582;10.080;2022-11-15T08:06:28;25.53;;;22.97;;
16193;SDS011;8204;53.582;10.080;2022-11-15T08:08:57;26.40;;;23.83;;
16193;SDS011;8204;53.582;10.080;2022-11-15T08:11:26;24.17;;;21.67;;
16193;SDS011;8204;53.582;10.080;2022-11-15T08:13:54;25.90;;;22.97;;
16193;SDS011;8204;53.582;10.080;2022-11-15T08:16:26;23.30;;;20.93;;
16193;SDS011;8204;53.582;10.080;2022-11-15T08:18:55;26.40;;;23.17;;
16193;SDS011;8204;53.582;10.080;2022-11-15T08:21:23;23.10;;;20.70;;
16193;SDS011;8204;53.582;10.080;2022-11-15T08:23:53;24.83;;;22.30;;
16193;SDS011;8204;53.582;10.080;2022-11-15T08:26:22;23.50;;;21.13;;
16193;SDS011;8204;53.582;10.080;2022-11-15T08:28:54;27.10;;;21.40;;
16193;SDS011;8204;53.582;10.080;2022-11-15T08:31:26;27.03;;;21.63;;
16193;SDS011;8204;53.582;10.080;2022-11-15T08:33:54;25.10;;;22.53;;
16193;SDS011;8204;53.582;10.080;2022-11-15T08:36:23;23.57;;;21.07;;
16193;SDS011;8204;53.582;10.080;2022-11-15T08:38:52;23.67;;;21.33;;
16193;SDS011;8204;53.582;10.080;2022-11-15T08:41:23;24.60;;;22.20;;
16193;SDS011;8204;53.582;10.080;2022-11-15T08:43:55;25.23;;;22.63;;
16193;SDS011;8204;53.582;10.080;2022-11-15T08:46:26;27.10;;;22.27;;
16193;SDS011;8204;53.582;10.080;2022-11-15T08:48:55;27.70;;;24.57;;
16193;SDS011;8204;53.582;10.080;2022-11-15T08:51:24;25.70;;;22.90;;
16193;SDS011;8204;53.582;10.080;2022-11-15T08:53:52;23.53;;;21.13;;
16193;SDS011;8204;53.582;10.080;2022-11-15T08:56:21;27.37;;;22.57;;
16193;SDS011;8204;53.582;10.080;2022-11-15T08:58:50;24.17;;;21.87;;
16193;SDS011;8204;53.582;10.080;2022-11-15T09:01:19;25.10;;;22.40;;
16193;SDS011;8204;53.582;10.080;2022-11-15T09:03:51;26.00;;;23.23;;
16193;SDS011;8204;53.582;10.080;2022-11-15T09:06:20;25.53;;;22.73;;
16193;SDS011;8204;53.582;10.080;2022-11-15T09:08:49;24.63;;;22.20;;
16193;SDS011;8204;53.582;10.080;2022-11-15T09:11:17;27.03;;;22.70;;
16193;SDS011;8204;53.582;10.080;2022-11-15T09:13:47;24.93;;;22.33;;
16193;SDS011;8204;53.582;10.080;2022-11-15T09:16:17;24.87;;;21.63;;
16193;SDS011;8204;53.582;10.080;2022-11-15T09:18:46;22.20;;;20.07;;
16193;SDS011;8204;53.582;10.080;2022-11-15T09:21:17;25.00;;;22.30;;
16193;SDS011;8204;53.582;10.080;2022-11-15T09:23:46;26.07;;;23.03;;
16193;SDS011;8204;53.582;10.080;2022-11-15T09:26:15;27.63;;;23.17;;
16193;SDS011;8204;53.582;10.080;2022-11-15T09:28:44;22.07;;;19.87;;
16193;SDS011;8204;53.582;10.080;2022-11-15T09:31:13;27.03;;;22.23;;
16193;SDS011;8204;53.582;10.080;2022-11-15T09:33:43;34.27;;;25.53;;
16193;SDS011;8204;53.582;10.080;2022-11-15T09:36:12;25.37;;;21.93;;
16193;SDS011;8204;53.582;10.080;2022-11-15T09:38:45;24.87;;;22.37;;
16193;SDS011;8204;53.582;10.080;2022-11-15T09:41:19;25.17;;;22.80;;
16193;SDS011;8204;53.582;10.080;2022-11-15T09:44:04;23.77;;;21.27;;
16193;SDS011;8204;53.582;10.080;2022-11-15T09:46:44;22.07;;;19.87;;
16193;SDS011;8204;53.582;10.080;2022-11-15T09:49:22;25.03;;;21.90;;
16193;SDS011;8204;53.582;10.080;2022-11-15T09:51:53;22.57;;;20.43;;
16193;SDS011;8204;53.582;10.080;2022-11-15T09:54:28;23.80;;;21.50;;
16193;SDS011;8204;53.582;10.080;2022-11-15T09:57:02;24.57;;;20.80;;
16193;SDS011;8204;53.582;10.080;2022-11-15T09:59:37;23.13;;;20.30;;
16193;SDS011;8204;53.582;10.080;2022-11-15T10:02:23;21.27;;;19.13;;
16193;SDS011;8204;53.582;10.080;2022-11-15T10:05:06;28.80;;;25.80;;
16193;SDS011;8204;53.582;10.080;2022-11-15T10:07:40;27.20;;;24.50;;
16193;SDS011;8204;53.582;10.080;2022-11-15T10:10:22;23.43;;;21.10;;
16193;SDS011;8204;53.582;10.080;2022-11-15T10:12:56;26.27;;;23.47;;
16193;SDS011;8204;53.582;10.080;2022-11-15T10:15:27;27.00;;;24.40;;
16193;SDS011;8204;53.582;10.080;2022-11-15T10:18:00;23.77;;;21.47;;
16193;SDS011;8204;53.582;10.080;2022-11-15T10:20:42;19.90;;;17.83;;
16193;SDS011;8204;53.582;10.080;2022-11-15T10:23:16;20.20;;;18.23;;
16193;SDS011;8204;53.582;10.080;2022-11-15T10:25:49;17.70;;;16.13;;
16193;SDS011;8204;53.582;10.080;2022-11-15T10:28:21;22.40;;;17.43;;
16193;SDS011;8204;53.582;10.080;2022-11-15T10:30:54;18.03;;;16.30;;
16193;SDS011;8204;53.582;10.080;2022-11-15T10:33:25;19.73;;;17.73;;
16193;SDS011;8204;53.582;10.080;2022-11-15T10:38:51;18.83;;;17.07;;
16193;SDS011;8204;53.582;10.080;2022-11-15T10:41:35;18.93;;;17.10;;
16193;SDS011;8204;53.582;10.080;2022-11-15T10:44:19;17.20;;;15.60;;
16193;SDS011;8204;53.582;10.080;2022-11-15T10:49:59;17.83;;;16.23;;
16193;SDS011;8204;53.582;10.080;2022-11-15T10:52:30;19.13;;;17.23;;
16193;SDS011;8204;53.582;10.080;2022-11-15T10:55:01;17.67;;;15.87;;
16193;SDS011;8204;53.582;10.080;2022-11-15T10:57:37;16.10;;;14.23;;
16193;SDS011;8204;53.582;10.080;2022-11-15T11:00:25;17.63;;;15.33;;
16193;SDS011;8204;53.582;10.080;2022-11-15T11:02:57;16.30;;;14.83;;
16193;SDS011;8204;53.582;10.080;2022-11-15T11:05:28;17.03;;;15.33;;
16193;SDS011;8204;53.582;10.080;2022-11-15T11:08:00;15.57;;;14.03;;
16193;SDS011;8204;53.582;10.080;2022-11-15T11:10:30;15.67;;;13.70;;
16193;SDS011;8204;53.582;10.080;2022-11-15T11:13:21;16.40;;;14.60;;
16193;SDS011;8204;53.582;10.080;2022-11-15T11:15:52;17.40;;;15.50;;
16193;SDS011;8204;53.582;10.080;2022-11-15T11:18:28;15.97;;;14.47;;
16193;SDS011;8204;53.582;10.080;2022-11-15T11:21:04;23.90;;;20.83;;
16193;SDS011;8204;53.582;10.080;2022-11-15T11:23:41;18.73;;;16.80;;
16193;SDS011;8204;53.582;10.080;2022-11-15T11:26:24;16.93;;;15.33;;
16193;SDS011;8204;53.582;10.080;2022-11-15T11:29:16;15.70;;;14.27;;
16193;SDS011;8204;53.582;10.080;2022-11-15T11:31:56;18.87;;;16.97;;
16193;SDS011;8204;53.582;10.080;2022-11-15T11:34:33;16.43;;;14.93;;
16193;SDS011;8204;53.582;10.080;2022-11-15T11:37:14;16.57;;;14.87;;
16193;SDS011;8204;53.582;10.080;2022-11-15T11:39:51;17.13;;;15.00;;
16193;SDS011;8204;53.582;10.080;2022-11-15T11:42:31;17.37;;;15.70;;
16193;SDS011;8204;53.582;10.080;2022-11-15T11:45:14;16.67;;;15.20;;
16193;SDS011;8204;53.582;10.080;2022-11-15T11:47:47;17.00;;;15.20;;
16193;SDS011;8204;53.582;10.080;2022-11-15T11:50:20;16.03;;;14.53;;
16193;SDS011;8204;53.582;10.080;2022-11-15T11:52:54;18.50;;;15.60;;
16193;SDS011;8204;53.582;10.080;2022-11-15T11:55:28;17.03;;;15.40;;
16193;SDS011;8204;53.582;10.080;2022-11-15T11:58:03;16.33;;;14.90;;
16193;SDS011;8204;53.582;10.080;2022-11-15T12:00:43;17.10;;;15.50;;
16193;SDS011;8204;53.582;10.080;2022-11-15T12:03:18;16.67;;;15.07;;
16193;SDS011;8204;53.582;10.080;2022-11-15T12:05:54;16.30;;;14.70;;
16193;SDS011;8204;53.582;10.080;2022-11-15T12:08:28;16.80;;;15.20;;
16193;SDS011;8204;53.582;10.080;2022-11-15T12:11:03;16.77;;;14.90;;
16193;SDS011;8204;53.582;10.080;2022-11-15T12:13:38;16.80;;;15.10;;
16193;SDS011;8204;53.582;10.080;2022-11-15T12:16:14;16.10;;;14.50;;
16193;SDS011;8204;53.582;10.080;2022-11-15T12:18:48;15.00;;;13.60;;
16193;SDS011;8204;53.582;10.080;2022-11-15T12:21:21;17.80;;;15.30;;
16193;SDS011;8204;53.582;10.080;2022-11-15T12:23:58;17.40;;;15.57;;
16193;SDS011;8204;53.582;10.080;2022-11-15T12:26:32;15.43;;;13.93;;
16193;SDS011;8204;53.582;10.080;2022-11-15T12:29:09;15.13;;;13.57;;
16193;SDS011;8204;53.582;10.080;2022-11-15T12:31:47;16.33;;;14.80;;
16193;SDS011;8204;53.582;10.080;2022-11-15T12:40:20;15.13;;;13.73;;
16193;SDS011;8204;53.582;10.080;2022-11-15T12:42:58;16.67;;;14.93;;
16193;SDS011;8204;53.582;10.080;2022-11-15T12:45:30;16.10;;;14.43;;
16193;SDS011;8204;53.582;10.080;2022-11-15T12:51:01;15.30;;;13.03;;
16193;SDS011;8204;53.582;10.080;2022-11-15T12:53:30;15.20;;;13.77;;
16193;SDS011;8204;53.582;10.080;2022-11-15T12:58:53;13.90;;;12.60;;
16193;SDS011;8204;53.582;10.080;2022-11-15T13:04:26;14.30;;;12.93;;
16193;SDS011;8204;53.582;10.080;2022-11-15T13:07:01;19.70;;;14.10;;
16193;SDS011;8204;53.582;10.080;2022-11-15T13:15:33;12.93;;;11.73;;
16193;SDS011;8204;53.582;10.080;2022-11-15T13:20:55;13.80;;;12.50;;
16193;SDS011;8204;53.582;10.080;2022-11-15T13:23:26;13.97;;;12.63;;
16193;SDS011;8204;53.582;10.080;2022-11-15T13:26:04;14.43;;;13.13;;
16193;SDS011;8204;53.582;10.080;2022-11-15T13:28:39;13.10;;;11.93;;
16193;SDS011;8204;53.582;10.080;2022-11-15T13:31:24;14.77;;;13.47;;
16193;SDS011;8204;53.582;10.080;2022-11-15T13:33:56;13.47;;;12.17;;
16193;SDS011;8204;53.582;10.080;2022-11-15T13:36:29;13.77;;;12.47;;
16193;SDS011;8204;53.582;10.080;2022-11-15T13:39:04;13.77;;;12.30;;
16193;SDS011;8204;53.582;10.080;2022-11-15T13:41:34;13.80;;;12.40;;
16193;SDS011;8204;53.582;10.080;2022-11-15T13:44:18;14.00;;;12.50;;
16193;SDS011;8204;53.582;10.080;2022-11-15T13:46:51;14.47;;;12.93;;
16193;SDS011;8204;53.582;10.080;2022-11-15T13:49:30;14.57;;;12.97;;
16193;SDS011;8204;53.582;10.080;2022-11-15T13:52:01;14.27;;;11.80;;
16193;SDS011;8204;53.582;10.080;2022-11-15T13:54:36;17.53;;;13.23;;
16193;SDS011;8204;53.582;10.080;2022-11-15T13:57:10;14.03;;;12.57;;
16193;SDS011;8204;53.582;10.080;2022-11-15T13:59:46;12.27;;;10.97;;
16193;SDS011;8204;53.582;10.080;2022-11-15T14:02:17;16.40;;;14.80;;
16193;SDS011;8204;53.582;10.080;2022-11-15T14:04:49;15.27;;;13.00;;
16193;SDS011;8204;53.582;10.080;2022-11-15T14:07:21;13.97;;;12.43;;
16193;SDS011;8204;53.582;10.080;2022-11-15T14:09:54;12.77;;;11.67;;
16193;SDS011;8204;53.582;10.080;2022-11-15T14:12:24;12.03;;;10.83;;
16193;SDS011;8204;53.582;10.080;2022-11-15T14:14:55;14.50;;;11.67;;
16193;SDS011;8204;53.582;10.080;2022-11-15T14:17:35;13.00;;;11.60;;
16193;SDS011;8204;53.582;10.080;2022-11-15T14:22:58;11.87;;;10.77;;
16193;SDS011;8204;53.582;10.080;2022-11-15T14:25:33;13.53;;;12.23;;
16193;SDS011;8204;53.582;10.080;2022-11-15T14:28:10;11.93;;;10.83;;
16193;SDS011;8204;53.582;10.080;2022-11-15T14:30:41;14.20;;;12.70;;
16193;SDS011;8204;53.582;10.080;2022-11-15T14:33:22;15.07;;;13.53;;
16193;SDS011;8204;53.582;10.080;2022-11-15T14:35:56;13.27;;;12.07;;
16193;SDS011;8204;53.582;10.080;2022-11-15T14:38:29;14.07;;;11.90;;
16193;SDS011;8204;53.582;10.080;2022-11-15T14:41:00;12.77;;;11.47;;
16193;SDS011;8204;53.582;10.080;2022-11-15T14:43:29;12.80;;;11.67;;
16193;SDS011;8204;53.582;10.080;2022-11-15T14:45:58;12.27;;;11.03;;
16193;SDS011;8204;53.582;10.080;2022-11-15T14:48:28;13.47;;;12.27;;
16193;SDS011;8204;53.582;10.080;2022-11-15T14:50:57;12.17;;;11.13;;
16193;SDS011;8204;53.582;10.080;2022-11-15T14:53:26;13.63;;;12.30;;
16193;SDS011;8204;53.582;10.080;2022-11-15T14:55:55;12.83;;;11.63;;
16193;SDS011;8204;53.582;10.080;2022-11-15T14:58:26;11.83;;;10.73;;
16193;SDS011;8204;53.582;10.080;2022-11-15T15:00:55;12.27;;;11.00;;
16193;SDS011;8204;53.582;10.080;2022-11-15T15:03:24;12.47;;;11.47;;
16193;SDS011;8204;53.582;10.080;2022-11-15T15:05:53;12.57;;;11.40;;
16193;SDS011;8204;53.582;10.080;2022-11-15T15:08:22;12.67;;;11.37;;
16193;SDS011;8204;53.582;10.080;2022-11-15T15:10:50;11.07;;;10.03;;
16193;SDS011;8204;53.582;10.080;2022-11-15T15:13:20;12.43;;;11.03;;
16193;SDS011;8204;53.582;10.080;2022-11-15T15:15:52;13.33;;;11.37;;
16193;SDS011;8204;53.582;10.080;2022-11-15T15:18:21;12.00;;;10.90;;
16193;SDS011;8204;53.582;10.080;2022-11-15T15:20:53;15.33;;;12.63;;
16193;SDS011;8204;53.582;10.080;2022-11-15T15:23:25;11.80;;;10.80;;